sensor_id;sensor_type;location;lat;lon;timestamp;temperature;humidity
21950;DHT22;11139;51.284;7.226;2023-04-02T00:06:31;9.20;99.90
21950;DHT22;11139;51.284;7.226;2023-04-02T00:09:01;9.20;99.90
21950;DHT22;11139;51.284;7.226;2023-04-02T00:11:30;9.20;99.90
21950;DHT22;11139;51.284;7.226;2023-04-02T00:13:58;9.20;99.90
21950;DHT22;11139;51.284;7.226;2023-04-02T00:16:25;9.20;99.90
21950;DHT22;11139;51.284;7.226;2023-04-02T00:18:52;9.20;99.90
21950;DHT22;11139;51.284;7.226;2023-04-02T00:21:29;9.20;99.90
21950;DHT22;11139;51.284;7.226;2023-04-02T00:23:58;9.20;99.90
21950;DHT22;11139;51.284;7.226;2023-04-02T00:28:59;9.20;99.90
21950;DHT22;11139;51.284;7.226;2023-04-02T00:31:25;9.10;99.90
21950;DHT22;11139;51.284;7.226;2023-04-02T00:33:51;9.10;99.90
21950;DHT22;11139;51.284;7.226;2023-04-02T00:36:18;9.10;99.90
21950;DHT22;11139;51.284;7.226;2023-04-02T00:38:44;9.10;99.90
21950;DHT22;11139;51.284;7.226;2023-04-02T00:41:13;9.10;99.90
21950;DHT22;11139;51.284;7.226;2023-04-02T00:43:41;9.10;99.90
21950;DHT22;11139;51.284;7.226;2023-04-02T00:46:15;9.10;99.90
21950;DHT22;11139;51.284;7.226;2023-04-02T00:48:43;9.10;99.90
21950;DHT22;11139;51.284;7.226;2023-04-02T00:51:13;9.10;99.90
21950;DHT22;11139;51.284;7.226;2023-04-02T00:53:40;9.10;99.90
21950;DHT22;11139;51.284;7.226;2023-04-02T00:56:12;9.00;99.90
21950;DHT22;11139;51.284;7.226;2023-04-02T00:58:38;9.10;99.90
21950;DHT22;11139;51.284;7.226;2023-04-02T01:01:13;9.10;99.90
21950;DHT22;11139;51.284;7.226;2023-04-02T01:03:39;9.00;99.90
21950;DHT22;11139;51.284;7.226;2023-04-02T01:11:06;9.00;99.90
21950;DHT22;11139;51.284;7.226;2023-04-02T01:18:46;9.00;99.90
21950;DHT22;11139;51.284;7.226;2023-04-02T01:26:49;8.90;99.90
21950;DHT22;11139;51.284;7.226;2023-04-02T01:29:29;8.90;99.90
21950;DHT22;11139;51.284;7.226;2023-04-02T01:32:00;8.90;99.90
21950;DHT22;11139;51.284;7.226;2023-04-02T01:34:27;8.90;99.90
21950;DHT22;11139;51.284;7.226;2023-04-02T01:36:57;8.90;99.90
21950;DHT22;11139;51.284;7.226;2023-04-02T01:44:21;8.90;99.90
21950;DHT22;11139;51.284;7.226;2023-04-02T01:46:48;8.90;99.90
21950;DHT22;11139;51.284;7.226;2023-04-02T01:49:16;8.90;99.90
21950;DHT22;11139;51.284;7.226;2023-04-02T01:51:43;8.90;99.90
21950;DHT22;11139;51.284;7.226;2023-04-02T01:54:09;8.90;99.90
21950;DHT22;11139;51.284;7.226;2023-04-02T01:56:34;8.80;99.90
21950;DHT22;11139;51.284;7.226;2023-04-02T01:59:00;8.80;99.90
21950;DHT22;11139;51.284;7.226;2023-04-02T02:01:39;8.80;99.90
21950;DHT22;11139;51.284;7.226;2023-04-02T02:04:07;8.80;99.90
21950;DHT22;11139;51.284;7.226;2023-04-02T02:06:34;8.80;99.90
21950;DHT22;11139;51.284;7.226;2023-04-02T02:09:01;8.80;99.90
21950;DHT22;11139;51.284;7.226;2023-04-02T02:11:29;8.80;99.90
21950;DHT22;11139;51.284;7.226;2023-04-02T02:13:56;8.80;99.90
21950;DHT22;11139;51.284;7.226;2023-04-02T02:16:26;8.80;99.90
21950;DHT22;11139;51.284;7.226;2023-04-02T02:18:52;8.80;99.90
21950;DHT22;11139;51.284;7.226;2023-04-02T02:21:29;8.70;99.90
21950;DHT22;11139;51.284;7.226;2023-04-02T02:23:57;8.70;99.90
21950;DHT22;11139;51.284;7.226;2023-04-02T02:26:23;8.70;99.90
21950;DHT22;11139;51.284;7.226;2023-04-02T02:28:51;8.70;99.90
21950;DHT22;11139;51.284;7.226;2023-04-02T02:31:22;8.70;99.90
21950;DHT22;11139;51.284;7.226;2023-04-02T02:33:52;8.70;99.90
21950;DHT22;11139;51.284;7.226;2023-04-02T02:36:25;8.70;99.90
21950;DHT22;11139;51.284;7.226;2023-04-02T02:38:54;8.70;99.90
21950;DHT22;11139;51.284;7.226;2023-04-02T02:46:20;8.60;99.90
21950;DHT22;11139;51.284;7.226;2023-04-02T02:48:46;8.60;99.90
21950;DHT22;11139;51.284;7.226;2023-04-02T02:51:16;8.60;99.90
21950;DHT22;11139;51.284;7.226;2023-04-02T02:53:47;8.60;99.90
21950;DHT22;11139;51.284;7.226;2023-04-02T02:56:14;8.60;99.90
21950;DHT22;11139;51.284;7.226;2023-04-02T02:58:40;8.60;99.90
21950;DHT22;11139;51.284;7.226;2023-04-02T03:01:05;8.50;99.90
21950;DHT22;11139;51.284;7.226;2023-04-02T03:03:31;8.50;99.90
21950;DHT22;11139;51.284;7.226;2023-04-02T03:06:05;8.50;99.90
21950;DHT22;11139;51.284;7.226;2023-04-02T03:08:35;8.50;99.90
21950;DHT22;11139;51.284;7.226;2023-04-02T03:11:04;8.50;99.90
21950;DHT22;11139;51.284;7.226;2023-04-02T03:13:34;8.50;99.90
21950;DHT22;11139;51.284;7.226;2023-04-02T03:16:10;8.50;99.90
21950;DHT22;11139;51.284;7.226;2023-04-02T03:18:53;8.40;99.90
21950;DHT22;11139;51.284;7.226;2023-04-02T03:29:09;8.40;99.90
21950;DHT22;11139;51.284;7.226;2023-04-02T03:31:38;8.40;99.90
21950;DHT22;11139;51.284;7.226;2023-04-02T03:34:25;8.40;99.90
21950;DHT22;11139;51.284;7.226;2023-04-02T03:39:36;8.40;99.90
21950;DHT22;11139;51.284;7.226;2023-04-02T03:42:19;8.40;99.90
21950;DHT22;11139;51.284;7.226;2023-04-02T03:44:48;8.30;99.90
21950;DHT22;11139;51.284;7.226;2023-04-02T03:47:15;8.30;99.90
21950;DHT22;11139;51.284;7.226;2023-04-02T03:49:44;8.30;99.90
21950;DHT22;11139;51.284;7.226;2023-04-02T03:52:25;8.30;99.90
21950;DHT22;11139;51.284;7.226;2023-04-02T03:54:52;8.30;99.90
21950;DHT22;11139;51.284;7.226;2023-04-02T04:00:19;8.20;99.90
21950;DHT22;11139;51.284;7.226;2023-04-02T04:02:52;8.20;99.90
21950;DHT22;11139;51.284;7.226;2023-04-02T04:05:23;8.20;99.90
21950;DHT22;11139;51.284;7.226;2023-04-02T04:07:51;8.20;99.90
21950;DHT22;11139;51.284;7.226;2023-04-02T04:10:18;8.20;99.90
21950;DHT22;11139;51.284;7.226;2023-04-02T04:12:46;8.20;99.90
21950;DHT22;11139;51.284;7.226;2023-04-02T04:15:19;8.20;99.90
21950;DHT22;11139;51.284;7.226;2023-04-02T04:23:07;8.20;99.90
21950;DHT22;11139;51.284;7.226;2023-04-02T04:25:47;8.20;99.90
21950;DHT22;11139;51.284;7.226;2023-04-02T04:34:53;8.10;99.90
21950;DHT22;11139;51.284;7.226;2023-04-02T04:37:27;8.10;99.90
21950;DHT22;11139;51.284;7.226;2023-04-02T04:42:36;8.10;99.90
21950;DHT22;11139;51.284;7.226;2023-04-02T04:45:05;8.10;99.90
21950;DHT22;11139;51.284;7.226;2023-04-02T04:47:34;8.10;99.90
21950;DHT22;11139;51.284;7.226;2023-04-02T04:52:45;8.00;99.90
21950;DHT22;11139;51.284;7.226;2023-04-02T04:55:29;8.00;99.90
21950;DHT22;11139;51.284;7.226;2023-04-02T05:05:52;8.00;99.90
21950;DHT22;11139;51.284;7.226;2023-04-02T05:08:19;8.00;99.90
21950;DHT22;11139;51.284;7.226;2023-04-02T05:13:14;8.00;99.90
21950;DHT22;11139;51.284;7.226;2023-04-02T05:18:21;8.00;99.90
21950;DHT22;11139;51.284;7.226;2023-04-02T05:20:58;7.90;99.90
21950;DHT22;11139;51.284;7.226;2023-04-02T05:28:28;7.90;99.90
21950;DHT22;11139;51.284;7.226;2023-04-02T05:30:57;7.90;99.90
21950;DHT22;11139;51.284;7.226;2023-04-02T05:33:29;7.90;99.90
21950;DHT22;11139;51.284;7.226;2023-04-02T05:36:00;7.90;99.90
21950;DHT22;11139;51.284;7.226;2023-04-02T05:38:27;7.80;99.90
21950;DHT22;11139;51.284;7.226;2023-04-02T05:40:57;7.80;99.90
21950;DHT22;11139;51.284;7.226;2023-04-02T05:43:24;7.80;99.90
21950;DHT22;11139;51.284;7.226;2023-04-02T05:45:52;7.80;99.90
21950;DHT22;11139;51.284;7.226;2023-04-02T05:48:19;7.80;99.90
21950;DHT22;11139;51.284;7.226;2023-04-02T05:50:46;7.80;99.90
21950;DHT22;11139;51.284;7.226;2023-04-02T05:58:41;7.70;99.90
21950;DHT22;11139;51.284;7.226;2023-04-02T06:01:23;7.70;99.90
21950;DHT22;11139;51.284;7.226;2023-04-02T06:06:24;7.70;99.90
21950;DHT22;11139;51.284;7.226;2023-04-02T06:08:55;7.70;99.90
21950;DHT22;11139;51.284;7.226;2023-04-02T06:11:24;7.70;99.90
21950;DHT22;11139;51.284;7.226;2023-04-02T06:13:51;7.60;99.90
21950;DHT22;11139;51.284;7.226;2023-04-02T06:16:16;7.60;99.90
21950;DHT22;11139;51.284;7.226;2023-04-02T06:18:44;7.60;99.90
21950;DHT22;11139;51.284;7.226;2023-04-02T06:21:13;7.60;99.90
21950;DHT22;11139;51.284;7.226;2023-04-02T06:23:46;7.60;99.90
21950;DHT22;11139;51.284;7.226;2023-04-02T06:28:47;7.50;99.90
21950;DHT22;11139;51.284;7.226;2023-04-02T06:31:24;7.60;99.90
21950;DHT22;11139;51.284;7.226;2023-04-02T06:33:51;7.60;99.90
21950;DHT22;11139;51.284;7.226;2023-04-02T06:36:19;7.50;99.90
21950;DHT22;11139;51.284;7.226;2023-04-02T06:38:45;7.50;99.90
21950;DHT22;11139;51.284;7.226;2023-04-02T06:41:13;7.50;99.90
21950;DHT22;11139;51.284;7.226;2023-04-02T06:43:45;7.50;99.90
21950;DHT22;11139;51.284;7.226;2023-04-02T06:46:32;7.50;99.90
21950;DHT22;11139;51.284;7.226;2023-04-02T06:51:39;7.50;99.90
21950;DHT22;11139;51.284;7.226;2023-04-02T06:54:07;7.50;99.90
21950;DHT22;11139;51.284;7.226;2023-04-02T06:56:41;7.40;99.90
21950;DHT22;11139;51.284;7.226;2023-04-02T06:59:07;7.40;99.90
21950;DHT22;11139;51.284;7.226;2023-04-02T07:01:37;7.40;99.90
21950;DHT22;11139;51.284;7.226;2023-04-02T07:04:04;7.60;99.90
21950;DHT22;11139;51.284;7.226;2023-04-02T07:06:30;7.70;99.90
21950;DHT22;11139;51.284;7.226;2023-04-02T07:08:56;7.70;99.90
21950;DHT22;11139;51.284;7.226;2023-04-02T07:11:21;7.70;99.90
21950;DHT22;11139;51.284;7.226;2023-04-02T07:13:47;7.70;99.90
21950;DHT22;11139;51.284;7.226;2023-04-02T07:16:14;7.70;99.90
21950;DHT22;11139;51.284;7.226;2023-04-02T07:18:40;7.70;99.90
21950;DHT22;11139;51.284;7.226;2023-04-02T07:21:05;7.80;99.90
21950;DHT22;11139;51.284;7.226;2023-04-02T07:23:31;7.80;99.90
21950;DHT22;11139;51.284;7.226;2023-04-02T07:25:56;7.80;99.90
21950;DHT22;11139;51.284;7.226;2023-04-02T07:28:22;7.80;99.90
21950;DHT22;11139;51.284;7.226;2023-04-02T07:30:48;7.80;99.90
21950;DHT22;11139;51.284;7.226;2023-04-02T07:33:15;7.80;99.90
21950;DHT22;11139;51.284;7.226;2023-04-02T07:35:41;7.30;99.90
21950;DHT22;11139;51.284;7.226;2023-04-02T07:38:06;7.00;99.90
21950;DHT22;11139;51.284;7.226;2023-04-02T07:40:32;6.90;99.90
21950;DHT22;11139;51.284;7.226;2023-04-02T07:42:58;7.00;99.90
21950;DHT22;11139;51.284;7.226;2023-04-02T07:45:23;7.00;99.90
21950;DHT22;11139;51.284;7.226;2023-04-02T07:47:49;7.00;99.90
21950;DHT22;11139;51.284;7.226;2023-04-02T07:50:14;7.00;99.90
21950;DHT22;11139;51.284;7.226;2023-04-02T07:52:40;7.00;99.90
21950;DHT22;11139;51.284;7.226;2023-04-02T07:55:09;7.00;99.90
21950;DHT22;11139;51.284;7.226;2023-04-02T07:57:40;7.00;99.90
21950;DHT22;11139;51.284;7.226;2023-04-02T08:00:09;7.00;99.90
21950;DHT22;11139;51.284;7.226;2023-04-02T08:02:36;7.00;99.90
21950;DHT22;11139;51.284;7.226;2023-04-02T08:05:01;7.00;99.90
21950;DHT22;11139;51.284;7.226;2023-04-02T08:07:27;7.00;99.90
21950;DHT22;11139;51.284;7.226;2023-04-02T08:09:52;7.00;99.90
21950;DHT22;11139;51.284;7.226;2023-04-02T08:12:18;7.00;99.90
21950;DHT22;11139;51.284;7.226;2023-04-02T08:14:43;7.00;99.90
21950;DHT22;11139;51.284;7.226;2023-04-02T08:17:09;7.00;99.90
21950;DHT22;11139;51.284;7.226;2023-04-02T08:19:34;7.00;99.90
21950;DHT22;11139;51.284;7.226;2023-04-02T08:22:00;7.00;99.90
21950;DHT22;11139;51.284;7.226;2023-04-02T08:24:25;7.00;99.90
21950;DHT22;11139;51.284;7.226;2023-04-02T08:26:51;6.90;99.90
21950;DHT22;11139;51.284;7.226;2023-04-02T08:29:19;6.90;99.90
21950;DHT22;11139;51.284;7.226;2023-04-02T08:31:45;6.90;99.90
21950;DHT22;11139;51.284;7.226;2023-04-02T08:34:10;6.90;99.90
21950;DHT22;11139;51.284;7.226;2023-04-02T08:36:37;6.90;99.90
21950;DHT22;11139;51.284;7.226;2023-04-02T08:39:04;6.90;99.90
21950;DHT22;11139;51.284;7.226;2023-04-02T08:41:33;6.90;99.90
21950;DHT22;11139;51.284;7.226;2023-04-02T08:46:27;6.90;99.90
21950;DHT22;11139;51.284;7.226;2023-04-02T08:48:57;6.90;99.90
21950;DHT22;11139;51.284;7.226;2023-04-02T08:51:24;6.90;99.90
21950;DHT22;11139;51.284;7.226;2023-04-02T08:53:51;6.90;99.90
21950;DHT22;11139;51.284;7.226;2023-04-02T08:58:58;6.90;99.90
21950;DHT22;11139;51.284;7.226;2023-04-02T09:04:12;6.90;99.90
21950;DHT22;11139;51.284;7.226;2023-04-02T09:06:38;6.90;99.90
21950;DHT22;11139;51.284;7.226;2023-04-02T09:09:04;6.90;99.90
21950;DHT22;11139;51.284;7.226;2023-04-02T09:11:33;6.90;99.90
21950;DHT22;11139;51.284;7.226;2023-04-02T09:14:00;6.80;99.90
21950;DHT22;11139;51.284;7.226;2023-04-02T09:16:38;6.80;99.90
21950;DHT22;11139;51.284;7.226;2023-04-02T09:19:15;6.80;99.90
21950;DHT22;11139;51.284;7.226;2023-04-02T09:21:45;6.80;99.90
21950;DHT22;11139;51.284;7.226;2023-04-02T09:24:13;6.80;99.90
21950;DHT22;11139;51.284;7.226;2023-04-02T09:26:38;6.80;99.90
21950;DHT22;11139;51.284;7.226;2023-04-02T09:31:39;6.80;99.90
21950;DHT22;11139;51.284;7.226;2023-04-02T09:36:52;6.80;99.90
21950;DHT22;11139;51.284;7.226;2023-04-02T09:39:19;6.80;99.90
21950;DHT22;11139;51.284;7.226;2023-04-02T09:41:45;6.80;99.90
21950;DHT22;11139;51.284;7.226;2023-04-02T09:46:36;6.80;99.90
21950;DHT22;11139;51.284;7.226;2023-04-02T09:49:02;6.80;99.90
21950;DHT22;11139;51.284;7.226;2023-04-02T09:51:28;6.80;99.90
21950;DHT22;11139;51.284;7.226;2023-04-02T09:56:28;6.80;99.90
21950;DHT22;11139;51.284;7.226;2023-04-02T09:59:04;6.80;99.90
21950;DHT22;11139;51.284;7.226;2023-04-02T10:01:34;6.80;99.90
21950;DHT22;11139;51.284;7.226;2023-04-02T10:04:00;6.80;99.90
21950;DHT22;11139;51.284;7.226;2023-04-02T10:06:28;6.80;99.90
21950;DHT22;11139;51.284;7.226;2023-04-02T10:08:53;6.80;99.90
21950;DHT22;11139;51.284;7.226;2023-04-02T10:11:24;6.80;99.90
21950;DHT22;11139;51.284;7.226;2023-04-02T10:18:47;6.80;99.90
21950;DHT22;11139;51.284;7.226;2023-04-02T10:24:12;6.80;99.90
21950;DHT22;11139;51.284;7.226;2023-04-02T10:31:39;6.80;99.90
21950;DHT22;11139;51.284;7.226;2023-04-02T10:34:12;6.70;99.90
21950;DHT22;11139;51.284;7.226;2023-04-02T10:36:51;6.80;99.90
21950;DHT22;11139;51.284;7.226;2023-04-02T10:42:21;6.70;99.90
21950;DHT22;11139;51.284;7.226;2023-04-02T10:45:00;6.70;99.90
21950;DHT22;11139;51.284;7.226;2023-04-02T10:52:48;6.70;99.90
21950;DHT22;11139;51.284;7.226;2023-04-02T10:55:17;6.70;99.90
21950;DHT22;11139;51.284;7.226;2023-04-02T10:57:44;6.80;99.90
21950;DHT22;11139;51.284;7.226;2023-04-02T11:02:38;6.70;99.90
21950;DHT22;11139;51.284;7.226;2023-04-02T11:05:10;6.70;99.90
21950;DHT22;11139;51.284;7.226;2023-04-02T11:07:44;6.70;99.90
21950;DHT22;11139;51.284;7.226;2023-04-02T11:10:12;6.70;99.90
21950;DHT22;11139;51.284;7.226;2023-04-02T11:12:40;6.70;99.90
21950;DHT22;11139;51.284;7.226;2023-04-02T11:15:17;6.70;99.90
21950;DHT22;11139;51.284;7.226;2023-04-02T11:17:43;6.70;99.90
21950;DHT22;11139;51.284;7.226;2023-04-02T11:25:48;6.70;99.90
21950;DHT22;11139;51.284;7.226;2023-04-02T11:28:19;6.70;99.90
21950;DHT22;11139;51.284;7.226;2023-04-02T11:30:49;6.70;99.90
21950;DHT22;11139;51.284;7.226;2023-04-02T11:35:55;6.70;99.90
21950;DHT22;11139;51.284;7.226;2023-04-02T11:40:56;6.80;99.90
21950;DHT22;11139;51.284;7.226;2023-04-02T11:45:59;6.80;99.90
21950;DHT22;11139;51.284;7.226;2023-04-02T11:48:26;6.70;99.90
21950;DHT22;11139;51.284;7.226;2023-04-02T11:50:52;6.80;99.90
21950;DHT22;11139;51.284;7.226;2023-04-02T11:53:19;6.80;99.90
21950;DHT22;11139;51.284;7.226;2023-04-02T11:55:46;6.80;99.90
21950;DHT22;11139;51.284;7.226;2023-04-02T12:06:26;6.80;99.90
21950;DHT22;11139;51.284;7.226;2023-04-02T12:09:00;6.80;99.90
21950;DHT22;11139;51.284;7.226;2023-04-02T12:11:35;6.70;99.90
21950;DHT22;11139;51.284;7.226;2023-04-02T12:14:47;6.70;99.90
21950;DHT22;11139;51.284;7.226;2023-04-02T12:16:47;6.70;99.90
21950;DHT22;11139;51.284;7.226;2023-04-02T12:19:13;6.70;99.90
21950;DHT22;11139;51.284;7.226;2023-04-02T12:21:40;6.70;99.90
21950;DHT22;11139;51.284;7.226;2023-04-02T12:24:11;6.70;99.90
21950;DHT22;11139;51.284;7.226;2023-04-02T12:26:38;6.70;99.90
21950;DHT22;11139;51.284;7.226;2023-04-02T12:29:13;6.70;99.90
21950;DHT22;11139;51.284;7.226;2023-04-02T12:31:42;6.70;99.90
21950;DHT22;11139;51.284;7.226;2023-04-02T12:34:12;6.70;99.90
21950;DHT22;11139;51.284;7.226;2023-04-02T12:36:38;6.70;99.90
21950;DHT22;11139;51.284;7.226;2023-04-02T12:39:12;6.70;99.90
21950;DHT22;11139;51.284;7.226;2023-04-02T12:41:40;6.70;99.90
21950;DHT22;11139;51.284;7.226;2023-04-02T12:44:06;6.70;99.90
21950;DHT22;11139;51.284;7.226;2023-04-02T12:46:39;6.70;99.90
21950;DHT22;11139;51.284;7.226;2023-04-02T12:51:31;6.70;99.90
21950;DHT22;11139;51.284;7.226;2023-04-02T12:53:57;6.70;99.90
21950;DHT22;11139;51.284;7.226;2023-04-02T12:56:22;6.70;99.90
21950;DHT22;11139;51.284;7.226;2023-04-02T12:58:52;6.70;99.90
21950;DHT22;11139;51.284;7.226;2023-04-02T13:01:19;6.70;99.90
21950;DHT22;11139;51.284;7.226;2023-04-02T13:06:26;6.70;99.90
21950;DHT22;11139;51.284;7.226;2023-04-02T13:08:52;6.70;99.90
21950;DHT22;11139;51.284;7.226;2023-04-02T13:11:18;6.60;99.90
21950;DHT22;11139;51.284;7.226;2023-04-02T13:13:45;6.70;99.90
21950;DHT22;11139;51.284;7.226;2023-04-02T13:18:37;6.70;99.90
21950;DHT22;11139;51.284;7.226;2023-04-02T13:21:03;6.60;99.90
21950;DHT22;11139;51.284;7.226;2023-04-02T13:25:55;6.70;99.90
21950;DHT22;11139;51.284;7.226;2023-04-02T13:28:21;6.70;99.90
21950;DHT22;11139;51.284;7.226;2023-04-02T13:30:46;6.60;99.90
21950;DHT22;11139;51.284;7.226;2023-04-02T13:33:12;6.60;99.90
21950;DHT22;11139;51.284;7.226;2023-04-02T13:35:38;6.60;99.90
21950;DHT22;11139;51.284;7.226;2023-04-02T13:38:04;6.70;99.90
21950;DHT22;11139;51.284;7.226;2023-04-02T13:40:30;6.60;99.90
21950;DHT22;11139;51.284;7.226;2023-04-02T13:42:56;6.60;99.90
21950;DHT22;11139;51.284;7.226;2023-04-02T13:45:26;6.60;99.90
21950;DHT22;11139;51.284;7.226;2023-04-02T13:47:52;6.60;99.90
21950;DHT22;11139;51.284;7.226;2023-04-02T13:50:19;6.60;99.90
21950;DHT22;11139;51.284;7.226;2023-04-02T13:52:45;6.60;99.90
21950;DHT22;11139;51.284;7.226;2023-04-02T13:55:11;6.60;99.90
21950;DHT22;11139;51.284;7.226;2023-04-02T13:57:37;6.60;99.90
21950;DHT22;11139;51.284;7.226;2023-04-02T14:00:03;6.60;99.90
21950;DHT22;11139;51.284;7.226;2023-04-02T14:02:29;6.60;99.90
21950;DHT22;11139;51.284;7.226;2023-04-02T14:04:58;6.60;99.90
21950;DHT22;11139;51.284;7.226;2023-04-02T14:07:36;6.60;99.90
21950;DHT22;11139;51.284;7.226;2023-04-02T14:20:41;6.60;99.90
21950;DHT22;11139;51.284;7.226;2023-04-02T14:28:08;6.60;99.90
21950;DHT22;11139;51.284;7.226;2023-04-02T14:30:42;6.60;99.90
21950;DHT22;11139;51.284;7.226;2023-04-02T14:35:41;6.60;99.90
21950;DHT22;11139;51.284;7.226;2023-04-02T14:43:01;6.60;99.90
21950;DHT22;11139;51.284;7.226;2023-04-02T14:47:57;6.60;99.90
21950;DHT22;11139;51.284;7.226;2023-04-02T14:50:28;6.60;99.90
21950;DHT22;11139;51.284;7.226;2023-04-02T14:53:00;6.70;99.90
21950;DHT22;11139;51.284;7.226;2023-04-02T14:55:34;6.70;99.90
21950;DHT22;11139;51.284;7.226;2023-04-02T14:58:03;6.70;99.90
21950;DHT22;11139;51.284;7.226;2023-04-02T15:00:39;6.70;99.90
21950;DHT22;11139;51.284;7.226;2023-04-02T15:07:58;6.70;99.90
21950;DHT22;11139;51.284;7.226;2023-04-02T15:10:29;6.70;99.90
21950;DHT22;11139;51.284;7.226;2023-04-02T15:12:56;6.70;99.90
21950;DHT22;11139;51.284;7.226;2023-04-02T15:18:11;6.70;99.90
21950;DHT22;11139;51.284;7.226;2023-04-02T15:20:39;6.70;99.90
21950;DHT22;11139;51.284;7.226;2023-04-02T15:23:16;6.70;99.90
21950;DHT22;11139;51.284;7.226;2023-04-02T15:25:46;6.80;99.90
21950;DHT22;11139;51.284;7.226;2023-04-02T15:30:41;6.80;99.90
21950;DHT22;11139;51.284;7.226;2023-04-02T15:35:52;6.80;99.90
21950;DHT22;11139;51.284;7.226;2023-04-02T15:38:55;6.80;99.90
21950;DHT22;11139;51.284;7.226;2023-04-02T15:41:22;6.80;99.90
21950;DHT22;11139;51.284;7.226;2023-04-02T15:44:01;6.80;99.90
21950;DHT22;11139;51.284;7.226;2023-04-02T15:46:35;6.70;99.90
21950;DHT22;11139;51.284;7.226;2023-04-02T15:49:05;6.80;99.90
21950;DHT22;11139;51.284;7.226;2023-04-02T15:56:46;6.70;99.90
21950;DHT22;11139;51.284;7.226;2023-04-02T16:07:23;6.80;99.90
21950;DHT22;11139;51.284;7.226;2023-04-02T16:10:03;6.80;99.90
21950;DHT22;11139;51.284;7.226;2023-04-02T16:12:31;6.80;99.90
21950;DHT22;11139;51.284;7.226;2023-04-02T16:14:58;6.80;99.90
21950;DHT22;11139;51.284;7.226;2023-04-02T16:17:34;6.80;99.90
21950;DHT22;11139;51.284;7.226;2023-04-02T16:20:23;6.80;99.90
21950;DHT22;11139;51.284;7.226;2023-04-02T16:22:56;6.80;99.90
21950;DHT22;11139;51.284;7.226;2023-04-02T16:25:24;6.80;99.90
21950;DHT22;11139;51.284;7.226;2023-04-02T16:41:25;6.70;99.90
21950;DHT22;11139;51.284;7.226;2023-04-02T16:43:54;6.70;99.90
21950;DHT22;11139;51.284;7.226;2023-04-02T16:46:23;6.70;99.90
21950;DHT22;11139;51.284;7.226;2023-04-02T16:48:58;6.70;99.90
21950;DHT22;11139;51.284;7.226;2023-04-02T16:54:12;6.70;99.90
21950;DHT22;11139;51.284;7.226;2023-04-02T16:59:10;6.70;99.90
21950;DHT22;11139;51.284;7.226;2023-04-02T17:06:46;6.70;99.90
21950;DHT22;11139;51.284;7.226;2023-04-02T17:11:46;6.60;99.90
21950;DHT22;11139;51.284;7.226;2023-04-02T17:14:16;6.70;99.90
21950;DHT22;11139;51.284;7.226;2023-04-02T17:16:45;6.70;99.90
21950;DHT22;11139;51.284;7.226;2023-04-02T17:19:12;6.70;99.90
21950;DHT22;11139;51.284;7.226;2023-04-02T17:21:39;6.70;99.90
21950;DHT22;11139;51.284;7.226;2023-04-02T17:24:13;6.60;99.90
21950;DHT22;11139;51.284;7.226;2023-04-02T17:26:46;6.60;99.90
21950;DHT22;11139;51.284;7.226;2023-04-02T17:29:14;6.60;99.90
21950;DHT22;11139;51.284;7.226;2023-04-02T17:31:43;6.60;99.90
21950;DHT22;11139;51.284;7.226;2023-04-02T17:34:13;6.60;99.90
21950;DHT22;11139;51.284;7.226;2023-04-02T17:49:07;6.60;99.90
21950;DHT22;11139;51.284;7.226;2023-04-02T17:51:36;6.60;99.90
21950;DHT22;11139;51.284;7.226;2023-04-02T17:54:24;6.60;99.90
21950;DHT22;11139;51.284;7.226;2023-04-02T17:57:05;6.60;99.90
21950;DHT22;11139;51.284;7.226;2023-04-02T18:04:38;6.50;99.90
21950;DHT22;11139;51.284;7.226;2023-04-02T18:12:13;6.50;99.90
21950;DHT22;11139;51.284;7.226;2023-04-02T18:17:18;6.50;99.90
21950;DHT22;11139;51.284;7.226;2023-04-02T18:27:22;6.40;99.90
21950;DHT22;11139;51.284;7.226;2023-04-02T18:30:13;6.40;99.90
21950;DHT22;11139;51.284;7.226;2023-04-02T18:45:56;6.30;99.90
21950;DHT22;11139;51.284;7.226;2023-04-02T18:50:53;6.30;99.90
21950;DHT22;11139;51.284;7.226;2023-04-02T18:53:22;6.30;99.90
21950;DHT22;11139;51.284;7.226;2023-04-02T18:58:24;6.30;99.90
21950;DHT22;11139;51.284;7.226;2023-04-02T19:00:51;6.30;99.90
21950;DHT22;11139;51.284;7.226;2023-04-02T19:03:18;6.20;99.90
21950;DHT22;11139;51.284;7.226;2023-04-02T19:05:49;6.30;99.90
21950;DHT22;11139;51.284;7.226;2023-04-02T19:10:43;6.30;99.90
21950;DHT22;11139;51.284;7.226;2023-04-02T19:13:11;6.20;99.90
21950;DHT22;11139;51.284;7.226;2023-04-02T19:18:29;6.20;99.90
21950;DHT22;11139;51.284;7.226;2023-04-02T19:21:04;6.20;99.90
21950;DHT22;11139;51.284;7.226;2023-04-02T19:26:16;6.10;99.90
21950;DHT22;11139;51.284;7.226;2023-04-02T19:39:02;6.10;99.90
21950;DHT22;11139;51.284;7.226;2023-04-02T19:43:54;6.00;99.90
21950;DHT22;11139;51.284;7.226;2023-04-02T19:46:21;6.00;99.90
21950;DHT22;11139;51.284;7.226;2023-04-02T19:51:31;6.00;99.90
21950;DHT22;11139;51.284;7.226;2023-04-02T19:53:57;6.00;99.90
21950;DHT22;11139;51.284;7.226;2023-04-02T19:56:23;6.00;99.90
21950;DHT22;11139;51.284;7.226;2023-04-02T19:58:48;6.00;99.90
21950;DHT22;11139;51.284;7.226;2023-04-02T20:01:14;5.90;99.90
21950;DHT22;11139;51.284;7.226;2023-04-02T20:03:39;5.90;99.90
21950;DHT22;11139;51.284;7.226;2023-04-02T20:06:05;5.90;99.90
21950;DHT22;11139;51.284;7.226;2023-04-02T20:08:30;5.90;99.90
21950;DHT22;11139;51.284;7.226;2023-04-02T20:10:56;5.90;99.90
21950;DHT22;11139;51.284;7.226;2023-04-02T20:13:25;5.90;99.90
21950;DHT22;11139;51.284;7.226;2023-04-02T20:15:50;5.80;99.90
21950;DHT22;11139;51.284;7.226;2023-04-02T20:18:16;5.80;99.90
21950;DHT22;11139;51.284;7.226;2023-04-02T20:20:44;5.80;99.90
21950;DHT22;11139;51.284;7.226;2023-04-02T20:23:10;5.80;99.90
21950;DHT22;11139;51.284;7.226;2023-04-02T20:25:35;5.80;99.90
21950;DHT22;11139;51.284;7.226;2023-04-02T20:28:01;5.80;99.90
21950;DHT22;11139;51.284;7.226;2023-04-02T20:30:28;5.80;99.90
21950;DHT22;11139;51.284;7.226;2023-04-02T20:32:56;5.80;99.90
21950;DHT22;11139;51.284;7.226;2023-04-02T20:35:22;5.80;99.90
21950;DHT22;11139;51.284;7.226;2023-04-02T20:37:47;5.70;99.90
21950;DHT22;11139;51.284;7.226;2023-04-02T20:40:13;5.80;99.90
21950;DHT22;11139;51.284;7.226;2023-04-02T20:42:39;5.70;99.90
21950;DHT22;11139;51.284;7.226;2023-04-02T20:45:04;5.70;99.90
21950;DHT22;11139;51.284;7.226;2023-04-02T20:47:30;5.70;99.90
21950;DHT22;11139;51.284;7.226;2023-04-02T20:49:56;5.70;99.90
21950;DHT22;11139;51.284;7.226;2023-04-02T20:52:21;5.60;99.90
21950;DHT22;11139;51.284;7.226;2023-04-02T20:54:47;5.60;99.90
21950;DHT22;11139;51.284;7.226;2023-04-02T20:57:13;5.60;99.90
21950;DHT22;11139;51.284;7.226;2023-04-02T20:59:39;5.60;99.90
21950;DHT22;11139;51.284;7.226;2023-04-02T21:02:04;5.60;99.90
21950;DHT22;11139;51.284;7.226;2023-04-02T21:04:30;5.60;99.90
21950;DHT22;11139;51.284;7.226;2023-04-02T21:06:55;5.60;99.90
21950;DHT22;11139;51.284;7.226;2023-04-02T21:09:22;5.60;99.90
21950;DHT22;11139;51.284;7.226;2023-04-02T21:11:47;5.50;99.90
21950;DHT22;11139;51.284;7.226;2023-04-02T21:14:13;5.50;99.90
21950;DHT22;11139;51.284;7.226;2023-04-02T21:16:38;5.50;99.90